KPAH - December 22, 2004 - Hourly Observations

Time(CST) Temperature Dew Point Humidity Sea Level Pressure Visibility Wind Direction Wind Speed Gust Speed Precipitation Events Conditions
12:19 AM 35.6 F / 2.0 C 33.8 F / 1.0 C 93% 30.07 in / 1018.2 hPa 4.0 miles / 6.4 kilometers NNE 13.8 mph / 22.2 km/h / 6.2 m/s - 0.02 in / 0.1 cm Rain Light Rain
SPECI KPAH 220619Z 02012KT 4SM -RA BR FEW009 OVC032 02/01 A3007 RMK AO2 P0002
12:37 AM 33.8 F / 1.0 C 32.0 F / 0.0 C 93% 30.07 in / 1018.2 hPa 3.0 miles / 4.8 kilometers NNE 15.0 mph / 24.1 km/h / 6.7 m/s 24.2 mph / 38.9 km/h / 10.8 m/s 0.04 in / 0.1 cm Rain Light Rain
SPECI KPAH 220637Z 02013G21KT 3SM -RA BR SCT008 BKN012 OVC035 01/00 A3007 RMK AO2 P0004
12:53 AM 34.0 F / 1.1 C 32.0 F / 0.0 C 92% 30.07 in / 1018.2 hPa 4.0 miles / 6.4 kilometers NNE 18.4 mph / 29.6 km/h / 8.2 m/s - 0.05 in / 0.1 cm Rain Light Rain
METAR KPAH 220653Z 02016KT 4SM -RA BR BKN008 BKN012 OVC036 01/00 A3006 RMK AO2 CIG 005V010 SLP182 P0005 T00110000
1:53 AM 33.1 F / 0.6 C 32.0 F / 0.0 C 96% 30.08 in / 1018.5 hPa 4.0 miles / 6.4 kilometers NNE 10.4 mph / 16.7 km/h / 4.6 m/s - 0.06 in / 0.2 cm Rain Light Rain
METAR KPAH 220753Z 03009KT 4SM -RA BR OVC005 01/00 A3008 RMK AO2 CIG 004V008 SLP185 P0006 T00060000
2:17 AM 32.0 F / 0.0 C 30.2 F / -1.0 C 93% 30.07 in / 1018.2 hPa 6.0 miles / 9.7 kilometers NNE 15.0 mph / 24.1 km/h / 6.7 m/s - 0.02 in / 0.1 cm Rain Light Freezing Rain
SPECI KPAH 220817Z 02013KT 6SM -FZRA BR OVC007 00/M01 A3007 RMK AO2 RAE08UPB08E11FZRAB11 CIG 004V010 P0002
2:53 AM 30.9 F / -0.6 C 28.0 F / -2.2 C 89% 30.09 in / 1018.7 hPa 5.0 miles / 8.0 kilometers NNE 21.9 mph / 35.2 km/h / 9.8 m/s 33.4 mph / 53.7 km/h / 14.9 m/s 0.05 in / 0.1 cm Snow Light Snow
METAR KPAH 220853Z 02019G29KT 5SM -SN BR BKN005 BKN009 OVC041 M01/M02 A3008 RMK AO2 PK WND 02029/0850 RAE08UPB08E11FZRAB11E50SNB50 SLP187 P0005 60016 T10061022 53006
3:04 AM 30.2 F / -1.0 C 28.4 F / -2.0 C 93% 30.07 in / 1018.2 hPa 5.0 miles / 8.0 kilometers NNE 17.3 mph / 27.8 km/h / 7.7 m/s - 0.00 in / 0.0 cm Snow Light Snow
SPECI KPAH 220904Z 03015KT 5SM -SN BR SCT005 SCT025 OVC039 M01/M02 A3007 RMK AO2 P0000
3:16 AM 30.2 F / -1.0 C 28.4 F / -2.0 C 93% 30.08 in / 1018.5 hPa 5.0 miles / 8.0 kilometers NNE 15.0 mph / 24.1 km/h / 6.7 m/s 21.9 mph / 35.2 km/h / 9.8 m/s N/A Rain Light Freezing Rain
SPECI KPAH 220916Z 02013G19KT 5SM FZRA BR FEW024 OVC039 M01/M02 A3008
3:32 AM 30.2 F / -1.0 C 28.4 F / -2.0 C 93% 30.10 in / 1019.2 hPa 4.0 miles / 6.4 kilometers North 15.0 mph / 24.1 km/h / 6.7 m/s - 0.04 in / 0.1 cm Snow Light Snow
SPECI KPAH 220932Z 01013KT 4SM -SN BR BKN011 BKN022 OVC039 M01/M02 A3010 RMK AO2 UPB08E14FZRAB14E32SNE08B32 P0004
3:53 AM 28.9 F / -1.7 C 26.1 F / -3.3 C 89% 30.11 in / 1019.6 hPa 3.0 miles / 4.8 kilometers North 16.1 mph / 25.9 km/h / 7.2 m/s - 0.07 in / 0.2 cm Snow Light Snow
METAR KPAH 220953Z 01014KT 3SM -SN BR SCT011 BKN014 OVC025 M02/M03 A3010 RMK AO2 UPB08E14FZRAB14E32SNE08B32 SLP196 P0007 T10171033
4:02 AM 28.4 F / -2.0 C 26.6 F / -3.0 C 93% 30.11 in / 1019.5 hPa 3.0 miles / 4.8 kilometers North 13.8 mph / 22.2 km/h / 6.2 m/s 21.9 mph / 35.2 km/h / 9.8 m/s 0.00 in / 0.0 cm Snow Light Snow
SPECI KPAH 221002Z 01012G19KT 3SM -SN BR SCT011 BKN025 OVC039 M02/M03 A3011 RMK AO2 P0000
4:21 AM 28.4 F / -2.0 C 26.6 F / -3.0 C 93% 30.09 in / 1018.8 hPa 4.0 miles / 6.4 kilometers NNE 15.0 mph / 24.1 km/h / 6.7 m/s - 0.00 in / 0.0 cm Snow Light Snow
SPECI KPAH 221021Z 03013KT 4SM -SN BR SCT008 BKN014 OVC037 M02/M03 A3009 RMK AO2 P0000
4:41 AM 28.4 F / -2.0 C 24.8 F / -4.0 C 86% 30.10 in / 1019.2 hPa 2.5 miles / 4.0 kilometers NNE 15.0 mph / 24.1 km/h / 6.7 m/s - 0.02 in / 0.1 cm Snow Light Snow
SPECI KPAH 221041Z 03013KT 2 1/2SM -SN BR BKN010 OVC044 M02/M04 A3010 RMK AO2 CIG 006V015 P0002
4:53 AM 27.0 F / -2.8 C 25.0 F / -3.9 C 92% 30.12 in / 1019.9 hPa 3.0 miles / 4.8 kilometers NNE 15.0 mph / 24.1 km/h / 6.7 m/s 23.0 mph / 37.0 km/h / 10.3 m/s 0.03 in / 0.1 cm Snow Light Snow
METAR KPAH 221053Z 03013G20KT 3SM -SN BR OVC010 M03/M04 A3011 RMK AO2 SLP199 P0003 T10281039
5:01 AM 26.6 F / -3.0 C 24.8 F / -4.0 C 93% 30.12 in / 1019.9 hPa 2.0 miles / 3.2 kilometers NNE 16.1 mph / 25.9 km/h / 7.2 m/s - 0.01 in / 0.0 cm Snow Light Snow
SPECI KPAH 221101Z 03014KT 2SM -SN BR OVC012 M03/M04 A3012 RMK AO2 P0001
5:14 AM 26.6 F / -3.0 C 24.8 F / -4.0 C 93% 30.12 in / 1019.9 hPa 1.8 miles / 2.8 kilometers NE 15.0 mph / 24.1 km/h / 6.7 m/s - 0.03 in / 0.1 cm Snow Light Snow
SPECI KPAH 221114Z 04013KT 1 3/4SM -SN BR OVC014 M03/M04 A3012 RMK AO2 P0003
5:19 AM 26.6 F / -3.0 C 24.8 F / -4.0 C 93% 30.12 in / 1019.9 hPa 2.0 miles / 3.2 kilometers NNE 12.7 mph / 20.4 km/h / 5.7 m/s - 0.03 in / 0.1 cm Snow Light Snow
SPECI KPAH 221119Z 03011KT 2SM -SN BR SCT012 OVC017 M03/M04 A3012 RMK AO2 P0003
5:26 AM 26.6 F / -3.0 C 24.8 F / -4.0 C 93% 30.12 in / 1019.9 hPa 1.8 miles / 2.8 kilometers NE 17.3 mph / 27.8 km/h / 7.7 m/s - 0.04 in / 0.1 cm Snow Light Snow
SPECI KPAH 221126Z 04015KT 1 3/4SM -SN BR OVC014 M03/M04 A3012 RMK AO2 P0004
5:53 AM 26.1 F / -3.3 C 23.0 F / -5.0 C 88% 30.14 in / 1020.5 hPa 1.5 miles / 2.4 kilometers NNE 17.3 mph / 27.8 km/h / 7.7 m/s - 0.07 in / 0.2 cm Snow Light Snow
METAR KPAH 221153Z 03015KT 1 1/2SM -SN BR OVC011 M03/M05 A3013 RMK AO2 SLP205 P0007 60033 70086 T10331050 10022 21033 51017
6:10 AM 26.6 F / -3.0 C 23.0 F / -5.0 C 86% 30.14 in / 1020.5 hPa 0.8 miles / 1.2 kilometers NNE 18.4 mph / 29.6 km/h / 8.2 m/s - 0.00 in / 0.0 cm Snow Light Snow
SPECI KPAH 221210Z 02016KT 3/4SM -SN BR VV009 M03/M05 A3014 RMK AO2 P0000
6:33 AM 24.8 F / -4.0 C 23.0 F / -5.0 C 93% 30.13 in / 1020.2 hPa 0.5 miles / 0.8 kilometers NNE 13.8 mph / 22.2 km/h / 6.2 m/s - 0.03 in / 0.1 cm Fog , Snow Snow
SPECI KPAH 221233Z 02012KT 1/2SM SN FZFG VV004 M04/M05 A3013 RMK AO2 P0003
6:53 AM 25.0 F / -3.9 C 23.0 F / -5.0 C 92% 30.15 in / 1020.9 hPa 0.5 miles / 0.8 kilometers NNE 17.3 mph / 27.8 km/h / 7.7 m/s - 0.06 in / 0.2 cm Fog , Snow Snow
METAR KPAH 221253Z 02015KT 1/2SM SN FZFG VV003 M04/M05 A3014 RMK AO2 SLP209 P0006 T10391050
7:15 AM 24.8 F / -4.0 C 21.2 F / -6.0 C 86% 30.15 in / 1020.9 hPa 0.8 miles / 1.2 kilometers NNE 16.1 mph / 25.9 km/h / 7.2 m/s - 0.03 in / 0.1 cm Snow Light Snow
SPECI KPAH 221315Z 02014KT 3/4SM -SN BR VV005 M04/M06 A3015 RMK AO2 P0003
7:31 AM 24.8 F / -4.0 C 21.2 F / -6.0 C 86% 30.15 in / 1020.9 hPa 1.0 miles / 1.6 kilometers NNE 12.7 mph / 20.4 km/h / 5.7 m/s - 0.04 in / 0.1 cm Snow Light Snow
SPECI KPAH 221331Z 03011KT 1SM -SN BR BKN006 OVC011 M04/M06 A3015 RMK AO2 P0004
7:42 AM 24.8 F / -4.0 C 21.2 F / -6.0 C 86% 30.16 in / 1021.2 hPa 0.5 miles / 0.8 kilometers North 13.8 mph / 22.2 km/h / 6.2 m/s - 0.05 in / 0.1 cm Fog , Snow Snow
SPECI KPAH 221342Z 01012KT 1/2SM SN FZFG BKN007 OVC011 M04/M06 A3016 RMK AO2 P0005
7:53 AM 24.1 F / -4.4 C 21.0 F / -6.1 C 88% 30.16 in / 1021.3 hPa 0.5 miles / 0.8 kilometers NNE 20.7 mph / 33.3 km/h / 9.3 m/s 25.3 mph / 40.7 km/h / 11.3 m/s 0.05 in / 0.1 cm Fog , Snow Snow
METAR KPAH 221353Z 02018G22KT 1/2SM SN FZFG VV007 M04/M06 A3015 RMK AO2 SLP213 P0005 T10441061
8:02 AM 23.0 F / -5.0 C 21.2 F / -6.0 C 93% 30.16 in / 1021.2 hPa 0.2 miles / 0.4 kilometers NNE 13.8 mph / 22.2 km/h / 6.2 m/s 23.0 mph / 37.0 km/h / 10.3 m/s 0.01 in / 0.0 cm Fog , Snow Heavy Snow
SPECI KPAH 221402Z 03012G20KT 1/4SM +SN FZFG FEW001 OVC006 M05/M06 A3016 RMK AO2 P0001
8:39 AM 23.0 F / -5.0 C 19.4 F / -7.0 C 86% 30.17 in / 1021.6 hPa 0.5 miles / 0.8 kilometers NNE 20.7 mph / 33.3 km/h / 9.3 m/s - N/A Fog Light Freezing Fog
SPECI KPAH 221439Z 03018KT 1/2SM FZFG VV006 M05/M07 A3017
8:53 AM 23.0 F / -5.0 C 19.9 F / -6.7 C 88% 30.18 in / 1021.9 hPa 0.2 miles / 0.4 kilometers NNE 12.7 mph / 20.4 km/h / 5.7 m/s - 0.04 in / 0.1 cm Fog Light Freezing Fog
METAR KPAH 221453Z 03011KT 1/4SM FZFG VV005 M05/M07 A3017 RMK AO2 SNEMM SLP219 P0004 60015 T10501067 53015 $
9:10 AM 21.2 F / -6.0 C 19.4 F / -7.0 C 93% 30.18 in / 1021.9 hPa 0.2 miles / 0.4 kilometers NE 15.0 mph / 24.1 km/h / 6.7 m/s 21.9 mph / 35.2 km/h / 9.8 m/s 0.01 in / 0.0 cm Fog Light Freezing Fog
SPECI KPAH 221510Z 04013G19KT 1/4SM FZFG VV004 M06/M07 A3018 RMK AO2 P0001 $
9:16 AM 21.2 F / -6.0 C 19.4 F / -7.0 C 93% 30.18 in / 1021.9 hPa 0.5 miles / 0.8 kilometers NE 13.8 mph / 22.2 km/h / 6.2 m/s - 0.02 in / 0.1 cm Fog Light Freezing Fog
SPECI KPAH 221516Z 04012KT 1/2SM FZFG VV005 M06/M07 A3018 RMK AO2 P0002 $
9:53 AM 21.9 F / -5.6 C 19.0 F / -7.2 C 89% 30.18 in / 1022.0 hPa 0.5 miles / 0.8 kilometers NNE 12.7 mph / 20.4 km/h / 5.7 m/s - 0.04 in / 0.1 cm Fog Light Freezing Fog
METAR KPAH 221553Z 03011KT 1/2SM FZFG VV006 M06/M07 A3017 RMK AO2 SLP220 P0004 T10561072 $
10:06 AM 21.2 F / -6.0 C 19.4 F / -7.0 C 93% 30.17 in / 1021.6 hPa 0.2 miles / 0.4 kilometers NNE 10.4 mph / 16.7 km/h / 4.6 m/s - N/A Fog Light Freezing Fog
SPECI KPAH 221606Z 02009KT 1/4SM FZFG BKN006 OVC012 M06/M07 A3017 RMK AO2 $
10:13 AM 21.2 F / -6.0 C 19.4 F / -7.0 C 93% 30.17 in / 1021.6 hPa 0.5 miles / 0.8 kilometers NNE 15.0 mph / 24.1 km/h / 6.7 m/s - 0.04 in / 0.1 cm Fog Light Freezing Fog
SPECI KPAH 221613Z 02013KT 1/2SM FZFG BKN006 OVC012 M06/M07 A3017 RMK AO2 P0004 $
10:37 AM 21.2 F / -6.0 C 17.6 F / -8.0 C 86% 30.15 in / 1020.9 hPa 0.8 miles / 1.2 kilometers NNE 19.6 mph / 31.5 km/h / 8.7 m/s - 0.04 in / 0.1 cm   Mist
SPECI KPAH 221637Z 02017KT 3/4SM BR VV011 M06/M08 A3015 RMK AO2 PRESFR P0004 $
10:44 AM 21.2 F / -6.0 C 17.6 F / -8.0 C 86% 30.15 in / 1020.9 hPa 1.2 miles / 2.0 kilometers NNE 16.1 mph / 25.9 km/h / 7.2 m/s - 0.04 in / 0.1 cm   Overcast
SPECI KPAH 221644Z 03014KT 1 1/4SM BR OVC012 M06/M08 A3015 RMK AO2 P0004 $
10:53 AM 21.9 F / -5.6 C 19.0 F / -7.2 C 89% 30.16 in / 1021.1 hPa 1.5 miles / 2.4 kilometers North 13.8 mph / 22.2 km/h / 6.2 m/s - 0.04 in / 0.1 cm   Overcast
METAR KPAH 221653Z 01012KT 1 1/2SM BR OVC012 M06/M07 A3014 RMK AO2 SLP211 P0004 T10561072 $
11:09 AM 21.2 F / -6.0 C 17.6 F / -8.0 C 86% 30.13 in / 1020.2 hPa 2.0 miles / 3.2 kilometers NNE 19.6 mph / 31.5 km/h / 8.7 m/s 26.5 mph / 42.6 km/h / 11.8 m/s N/A   Overcast
SPECI KPAH 221709Z 02017G23KT 2SM HZ FEW009 BKN014 OVC050 M06/M08 A3013 RMK AO2 $
11:43 AM 21.2 F / -6.0 C 17.6 F / -8.0 C 86% 30.12 in / 1019.9 hPa 3.0 miles / 4.8 kilometers NNE 16.1 mph / 25.9 km/h / 7.2 m/s 24.2 mph / 38.9 km/h / 10.8 m/s N/A   Overcast
SPECI KPAH 221743Z 02014G21KT 3SM HZ BKN014 BKN026 OVC038 M06/M08 A3012 RMK AO2
11:53 AM 21.9 F / -5.6 C 17.1 F / -8.3 C 82% 30.11 in / 1019.4 hPa 3.0 miles / 4.8 kilometers NNE 15.0 mph / 24.1 km/h / 6.7 m/s - N/A   Overcast
METAR KPAH 221753Z 02013KT 3SM HZ BKN014 BKN026 OVC038 M06/M08 A3009 RMK AO2 PRESFR SLP194 60023 T10561083 11033 21061 58027 $
12:09 PM 21.2 F / -6.0 C 17.6 F / -8.0 C 86% 30.08 in / 1018.5 hPa 3.0 miles / 4.8 kilometers North 17.3 mph / 27.8 km/h / 7.7 m/s - N/A   Overcast
SPECI KPAH 221809Z 01015KT 3SM BR BKN016 OVC028 M06/M08 A3008 RMK AO2 $
12:17 PM 21.2 F / -6.0 C 17.6 F / -8.0 C 86% 30.09 in / 1018.8 hPa 2.5 miles / 4.0 kilometers North 15.0 mph / 24.1 km/h / 6.7 m/s 25.3 mph / 40.7 km/h / 11.3 m/s N/A   Overcast
SPECI KPAH 221817Z 01013G22KT 2 1/2SM BR OVC016 M06/M08 A3009 RMK AO2 $
12:41 PM 21.2 F / -6.0 C 15.8 F / -9.0 C 80% 30.09 in / 1018.8 hPa 3.0 miles / 4.8 kilometers North 13.8 mph / 22.2 km/h / 6.2 m/s - N/A   Overcast
SPECI KPAH 221841Z 01012KT 3SM HZ OVC018 M06/M09 A3009 RMK AO2 $
12:53 PM 21.0 F / -6.1 C 15.1 F / -9.4 C 78% 30.10 in / 1019.3 hPa 3.0 miles / 4.8 kilometers North 17.3 mph / 27.8 km/h / 7.7 m/s 26.5 mph / 42.6 km/h / 11.8 m/s N/A   Overcast
METAR KPAH 221853Z 01015G23KT 3SM HZ OVC020 M06/M09 A3009 RMK AO2 SLP193 T10611094 $
1:53 PM 21.0 F / -6.1 C 12.9 F / -10.6 C 71% 30.07 in / 1018.2 hPa 3.0 miles / 4.8 kilometers NNE 18.4 mph / 29.6 km/h / 8.2 m/s 26.5 mph / 42.6 km/h / 11.8 m/s N/A   Overcast
METAR KPAH 221953Z 02016G23KT 3SM HZ OVC022 M06/M11 A3006 RMK AO2 SLP182 T10611106 $
2:17 PM 19.4 F / -7.0 C 14.0 F / -10.0 C 80% 30.06 in / 1017.8 hPa 2.0 miles / 3.2 kilometers NNE 18.4 mph / 29.6 km/h / 8.2 m/s - N/A   Overcast
SPECI KPAH 222017Z 02016KT 2SM HZ OVC022 M07/M10 A3006 RMK AO2 $
2:26 PM 19.4 F / -7.0 C 12.2 F / -11.0 C 74% 30.06 in / 1017.8 hPa 1.2 miles / 2.0 kilometers NNE 23.0 mph / 37.0 km/h / 10.3 m/s 27.6 mph / 44.4 km/h / 12.3 m/s N/A   Overcast
SPECI KPAH 222026Z 02020G24KT 1 1/4SM HZ OVC024 M07/M11 A3006 RMK AO2 $
2:42 PM 19.4 F / -7.0 C 14.0 F / -10.0 C 80% 30.05 in / 1017.5 hPa 0.8 miles / 1.2 kilometers NNE 17.3 mph / 27.8 km/h / 7.7 m/s - N/A   Overcast
SPECI KPAH 222042Z 02015KT 3/4SM HZ BKN011 OVC024 M07/M10 A3005 RMK AO2 PK WND 02026/2028 $
2:53 PM 19.0 F / -7.2 C 15.1 F / -9.4 C 85% 30.06 in / 1017.8 hPa 0.5 miles / 0.8 kilometers NNE 19.6 mph / 31.5 km/h / 8.7 m/s - N/A Fog Light Freezing Fog
METAR KPAH 222053Z 02017KT 1/2SM FZFG BKN011 OVC024 M07/M09 A3004 RMK AO2 PK WND 02026/2028 SLP178 T10721094 58016 $
3:02 PM 19.4 F / -7.0 C 15.8 F / -9.0 C 86% 30.03 in / 1016.8 hPa 0.5 miles / 0.8 kilometers NNE 18.4 mph / 29.6 km/h / 8.2 m/s - 0.01 in / 0.0 cm Fog Light Freezing Fog
SPECI KPAH 222102Z 03016KT 1/2SM FZFG VV009 M07/M09 A3003 RMK AO2 P0001 $
3:19 PM 19.4 F / -7.0 C 15.8 F / -9.0 C 86% 30.02 in / 1016.5 hPa 0.2 miles / 0.4 kilometers NNE 19.6 mph / 31.5 km/h / 8.7 m/s - 0.01 in / 0.0 cm Fog Light Freezing Fog
SPECI KPAH 222119Z 02017KT 1/4SM FZFG VV005 M07/M09 A3002 RMK AO2 P0001 $
3:37 PM 19.4 F / -7.0 C 15.8 F / -9.0 C 86% 30.01 in / 1016.1 hPa 0.2 miles / 0.4 kilometers NNE 20.7 mph / 33.3 km/h / 9.3 m/s 28.8 mph / 46.3 km/h / 12.9 m/s 0.02 in / 0.1 cm Fog Light Freezing Fog
SPECI KPAH 222137Z 03018G25KT 1/4SM FZFG VV004 M07/M09 A3001 RMK AO2 P0002 $
3:41 PM 19.4 F / -7.0 C 15.8 F / -9.0 C 86% 30.02 in / 1016.5 hPa 0.5 miles / 0.8 kilometers NNE 17.3 mph / 27.8 km/h / 7.7 m/s 28.8 mph / 46.3 km/h / 12.9 m/s 0.02 in / 0.1 cm Fog Light Freezing Fog
SPECI KPAH 222141Z 03015G25KT 1/2SM FZFG VV005 M07/M09 A3002 RMK AO2 P0002 $
3:53 PM 19.0 F / -7.2 C 15.1 F / -9.4 C 85% 30.04 in / 1017.0 hPa 0.5 miles / 0.8 kilometers NNE 21.9 mph / 35.2 km/h / 9.8 m/s 26.5 mph / 42.6 km/h / 11.8 m/s 0.02 in / 0.1 cm Fog Light Freezing Fog
METAR KPAH 222153Z 02019G23KT 1/2SM FZFG VV007 M07/M09 A3002 RMK AO2 SLP170 P0002 T10721094 $
4:31 PM 19.4 F / -7.0 C 15.8 F / -9.0 C 86% 30.01 in / 1016.1 hPa 1.0 miles / 1.6 kilometers NNE 18.4 mph / 29.6 km/h / 8.2 m/s 26.5 mph / 42.6 km/h / 11.8 m/s 0.02 in / 0.1 cm   Mist
SPECI KPAH 222231Z 02016G23KT 1SM BR VV010 M07/M09 A3001 RMK AO2 P0002 $
4:53 PM 19.0 F / -7.2 C 15.1 F / -9.4 C 85% 30.04 in / 1017.2 hPa 1.0 miles / 1.6 kilometers NNE 17.3 mph / 27.8 km/h / 7.7 m/s - 0.03 in / 0.1 cm   Overcast
METAR KPAH 222253Z 02015KT 1SM BR BKN011 OVC026 M07/M09 A3002 RMK AO2 SLP172 P0003 T10721094 $
5:03 PM 19.4 F / -7.0 C 15.8 F / -9.0 C 86% 30.03 in / 1016.8 hPa 0.8 miles / 1.2 kilometers North 16.1 mph / 25.9 km/h / 7.2 m/s - 0.01 in / 0.0 cm   Overcast
SPECI KPAH 222303Z 01014KT 3/4SM BR BKN009 BKN018 OVC026 M07/M09 A3003 RMK AO2 P0001 $
5:53 PM 19.0 F / -7.2 C 16.0 F / -8.9 C 88% 30.06 in / 1017.9 hPa 0.5 miles / 0.8 kilometers North 20.7 mph / 33.3 km/h / 9.3 m/s 26.5 mph / 42.6 km/h / 11.8 m/s 0.06 in / 0.2 cm Fog Light Freezing Fog
METAR KPAH 222353Z 36018G23KT 1/2SM FZFG VV004 M07/M09 A3005 RMK AO2 SLP179 P0006 60011 T10721089 11056 21072 53000 $
6:53 PM 18.0 F / -7.8 C 15.1 F / -9.4 C 88% 30.02 in / 1016.5 hPa 0.5 miles / 0.8 kilometers NNE 16.1 mph / 25.9 km/h / 7.2 m/s - 0.02 in / 0.1 cm Fog Light Freezing Fog
METAR KPAH 230053Z 02014KT 1/2SM FZFG VV003 M08/M09 A3000 RMK AO2 PK WND 01028/0039 SLP165 P0002 T10781094 $
7:53 PM 18.0 F / -7.8 C 15.1 F / -9.4 C 88% 30.03 in / 1016.7 hPa 0.5 miles / 0.8 kilometers North 13.8 mph / 22.2 km/h / 6.2 m/s 23.0 mph / 37.0 km/h / 10.3 m/s 0.04 in / 0.1 cm Fog Light Freezing Fog
METAR KPAH 230153Z 01012G20KT 1/2SM FZFG VV003 M08/M09 A3001 RMK AO2 PK WND 03026/0103 SLP167 P0004 T10781094 $
8:53 PM 17.1 F / -8.3 C 14.0 F / -10.0 C 88% 30.03 in / 1016.7 hPa 0.5 miles / 0.8 kilometers North 19.6 mph / 31.5 km/h / 8.7 m/s 27.6 mph / 44.4 km/h / 12.3 m/s 0.02 in / 0.1 cm Fog Light Freezing Fog
METAR KPAH 230253Z 36017G24KT 1/2SM FZFG OVC002 M08/M10 A3001 RMK AO2 SLP167 P0002 60008 T10831100 55012 $
9:53 PM 17.1 F / -8.3 C 12.9 F / -10.6 C 84% 29.98 in / 1015.2 hPa 0.8 miles / 1.2 kilometers North 21.9 mph / 35.2 km/h / 9.8 m/s 32.2 mph / 51.9 km/h / 14.4 m/s 0.03 in / 0.1 cm   Mist
METAR KPAH 230353Z 01019G28KT 3/4SM BR VV005 M08/M11 A2997 RMK AO2 PK WND 01031/0342 SLP152 P0003 T10831106 $
10:31 PM 17.6 F / -8.0 C 12.2 F / -11.0 C 79% 30.00 in / 1015.8 hPa 1.2 miles / 2.0 kilometers North 17.3 mph / 27.8 km/h / 7.7 m/s 23.0 mph / 37.0 km/h / 10.3 m/s 0.01 in / 0.0 cm   Overcast
SPECI KPAH 230431Z 35015G20KT 1 1/4SM BR BKN006 OVC020 M08/M11 A3000 RMK AO2 PK WND 01030/0406 PRESRR P0001 $
10:53 PM 16.0 F / -8.9 C 12.9 F / -10.6 C 88% 30.02 in / 1016.6 hPa 1.8 miles / 2.8 kilometers North 18.4 mph / 29.6 km/h / 8.2 m/s 25.3 mph / 40.7 km/h / 11.3 m/s 0.01 in / 0.0 cm   Overcast
METAR KPAH 230453Z 36016G22KT 1 3/4SM BR BKN014 BKN020 OVC040 M09/M11 A3000 RMK AO2 PK WND 01030/0406 SLP166 P0001 T10891106 $
11:16 PM 15.8 F / -9.0 C 12.2 F / -11.0 C 86% 30.02 in / 1016.5 hPa 0.8 miles / 1.2 kilometers NNW 21.9 mph / 35.2 km/h / 9.8 m/s 29.9 mph / 48.2 km/h / 13.4 m/s N/A   Mist
SPECI KPAH 230516Z 34019G26KT 3/4SM BR VV008 M09/M11 A3002 RMK AO2 PK WND 35026/0515 $
11:42 PM 15.8 F / -9.0 C 12.2 F / -11.0 C 86% 30.03 in / 1016.8 hPa 1.0 miles / 1.6 kilometers North 16.1 mph / 25.9 km/h / 7.2 m/s 24.2 mph / 38.9 km/h / 10.8 m/s 0.01 in / 0.0 cm   Mist
SPECI KPAH 230542Z 35014G21KT 1SM BR VV007 M09/M11 A3003 RMK AO2 PK WND 35026/0515 P0001 $
11:53 PM 16.0 F / -8.9 C 12.0 F / -11.1 C 84% 30.05 in / 1017.5 hPa 1.2 miles / 2.0 kilometers NNW 18.4 mph / 29.6 km/h / 8.2 m/s 25.3 mph / 40.7 km/h / 11.3 m/s 0.01 in / 0.0 cm   Overcast
METAR KPAH 230553Z 34016G22KT 1 1/4SM BR BKN008 OVC015 M09/M11 A3003 RMK AO2 PK WND 35026/0515 SLP175 P0001 60013 T10891111 11072 21089 400171089 53007 $